createdAt,value
2018-09-23T00:01:17.022Z,13.40
2018-09-23T00:03:57.972Z,13.40
2018-09-23T00:06:38.566Z,13.30
2018-09-23T00:09:19.800Z,13.40
2018-09-23T00:12:01.600Z,13.50
2018-09-23T00:14:42.104Z,13.50
2018-09-23T00:17:22.668Z,13.50
2018-09-23T00:20:04.107Z,13.40
2018-09-23T00:22:45.060Z,13.40
2018-09-23T00:25:25.486Z,13.40
2018-09-23T00:28:06.468Z,13.40
2018-09-23T00:30:47.468Z,13.40
2018-09-23T00:33:29.198Z,13.40
2018-09-23T00:36:10.233Z,13.30
2018-09-23T00:38:51.102Z,13.30
2018-09-23T00:41:32.353Z,13.20
2018-09-23T00:44:13.817Z,13.10
2018-09-23T00:46:54.189Z,13.20
2018-09-23T00:49:35.307Z,13.20
2018-09-23T00:52:16.180Z,13.20
2018-09-23T00:54:56.765Z,13.20
2018-09-23T00:57:38.417Z,13.20
2018-09-23T01:00:20.372Z,13.10
2018-09-23T01:03:00.898Z,13.20
2018-09-23T01:05:42.180Z,13.20
2018-09-23T01:08:22.745Z,13.00
2018-09-23T01:11:03.753Z,13.00
2018-09-23T01:13:45.183Z,13.00
2018-09-23T01:16:25.724Z,13.00
2018-09-23T01:19:07.089Z,12.90
2018-09-23T01:21:48.840Z,12.90
2018-09-23T01:24:29.320Z,12.90
2018-09-23T01:27:11.441Z,12.80
2018-09-23T01:29:51.933Z,12.70
2018-09-23T01:32:32.936Z,12.70
2018-09-23T01:35:13.702Z,12.70
2018-09-23T01:37:54.482Z,12.70
2018-09-23T01:40:35.215Z,12.70
2018-09-23T01:43:16.192Z,12.80
2018-09-23T01:45:56.730Z,12.80
2018-09-23T01:48:37.148Z,12.70
2018-09-23T01:51:18.316Z,12.80
2018-09-23T01:53:59.289Z,12.80
2018-09-23T01:56:40.481Z,12.80
2018-09-23T01:59:21.425Z,12.80
2018-09-23T02:02:02.022Z,12.70
2018-09-23T02:04:43.908Z,12.70
2018-09-23T02:07:24.756Z,12.70
2018-09-23T02:10:05.719Z,12.70
2018-09-23T02:12:46.805Z,12.70
2018-09-23T02:15:27.325Z,12.70
2018-09-23T02:18:08.344Z,12.80
2018-09-23T02:20:49.316Z,12.80
2018-09-23T02:23:30.650Z,12.70
2018-09-23T02:26:12.052Z,12.70
2018-09-23T02:28:52.645Z,12.70
2018-09-23T02:31:34.063Z,12.70
2018-09-23T02:34:14.525Z,12.70
2018-09-23T02:36:55.623Z,12.70
2018-09-23T02:39:36.245Z,12.80
2018-09-23T02:42:16.947Z,12.80
2018-09-23T02:44:57.836Z,12.80
2018-09-23T02:47:38.375Z,12.80
2018-09-23T02:50:19.826Z,12.70
2018-09-23T02:53:00.477Z,12.70
2018-09-23T02:55:41.335Z,12.70
2018-09-23T02:58:21.856Z,12.70
2018-09-23T03:01:02.888Z,12.80
2018-09-23T03:03:43.875Z,12.80
2018-09-23T03:06:24.280Z,12.80
2018-09-23T03:09:06.320Z,12.90
2018-09-23T03:11:47.869Z,12.90
2018-09-23T03:14:29.494Z,12.90
2018-09-23T03:17:10.047Z,12.90
2018-09-23T03:19:50.529Z,12.90
2018-09-23T03:22:32.276Z,13.00
2018-09-23T03:25:13.226Z,13.00
2018-09-23T03:27:54.366Z,13.00
2018-09-23T03:30:35.199Z,13.00
2018-09-23T03:33:15.968Z,12.90
2018-09-23T03:35:56.901Z,13.00
2018-09-23T03:38:37.351Z,12.90
2018-09-23T03:41:18.335Z,12.80
2018-09-23T03:43:59.019Z,12.70
2018-09-23T03:46:40.259Z,12.70
2018-09-23T03:49:20.987Z,12.70
2018-09-23T03:52:02.408Z,12.70
2018-09-23T03:54:43.627Z,12.80
2018-09-23T03:57:24.406Z,12.90
2018-09-23T04:00:05.200Z,12.80
2018-09-23T04:02:46.880Z,12.80
2018-09-23T04:05:27.731Z,12.80
2018-09-23T04:08:08.581Z,12.80
2018-09-23T04:10:49.165Z,12.80
2018-09-23T04:13:30.174Z,12.80
2018-09-23T04:16:17.412Z,12.70
2018-09-23T04:18:58.037Z,12.80
2018-09-23T04:21:38.806Z,12.80
2018-09-23T04:24:19.427Z,12.90
2018-09-23T04:26:59.992Z,12.90
2018-09-23T04:29:40.496Z,12.80
2018-09-23T04:32:21.699Z,12.80
2018-09-23T04:35:02.685Z,12.90
2018-09-23T04:37:43.212Z,12.90
2018-09-23T04:40:24.699Z,12.90
2018-09-23T04:43:05.428Z,13.00
2018-09-23T04:45:46.008Z,12.90
2018-09-23T04:48:26.493Z,12.90
2018-09-23T04:51:06.909Z,13.00
2018-09-23T04:53:47.419Z,12.90
2018-09-23T04:56:28.245Z,12.90
2018-09-23T04:59:09.673Z,12.80
2018-09-23T05:01:50.146Z,12.80
2018-09-23T05:04:30.700Z,12.90
2018-09-23T05:07:12.509Z,13.10
2018-09-23T05:09:55.631Z,12.90
2018-09-23T05:12:36.493Z,13.00
2018-09-23T05:15:16.956Z,13.00
2018-09-23T05:17:57.877Z,13.00
2018-09-23T05:20:39.002Z,13.00
2018-09-23T05:23:19.764Z,13.00
2018-09-23T05:26:00.553Z,13.00
2018-09-23T05:28:41.623Z,13.00
2018-09-23T05:31:23.420Z,13.10
2018-09-23T05:34:04.269Z,13.20
2018-09-23T05:36:44.748Z,13.30
2018-09-23T05:39:25.825Z,13.20
2018-09-23T05:42:06.819Z,13.20
2018-09-23T05:44:47.200Z,13.30
2018-09-23T05:47:28.249Z,13.40
2018-09-23T05:50:09.161Z,13.40
2018-09-23T05:52:49.976Z,13.40
2018-09-23T05:55:31.911Z,13.30
2018-09-23T05:58:12.885Z,13.30
2018-09-23T06:00:55.399Z,13.40
2018-09-23T06:03:36.029Z,14.00
2018-09-23T06:06:16.833Z,14.20
2018-09-23T06:08:57.693Z,14.00
2018-09-23T06:11:38.905Z,13.90
2018-09-23T06:14:19.824Z,13.80
2018-09-23T06:17:00.787Z,13.80
2018-09-23T06:19:41.730Z,13.90
2018-09-23T06:22:22.666Z,13.80
2018-09-23T06:25:03.849Z,13.90
2018-09-23T06:27:44.609Z,13.90
2018-09-23T06:30:25.610Z,13.90
2018-09-23T06:33:06.807Z,14.20
2018-09-23T06:35:47.800Z,14.60
2018-09-23T06:38:28.497Z,14.80
2018-09-23T06:41:09.641Z,14.90
2018-09-23T06:43:50.122Z,15.00
2018-09-23T06:46:31.728Z,14.80
2018-09-23T06:49:12.739Z,14.50
2018-09-23T06:51:53.256Z,14.40
2018-09-23T06:54:34.216Z,14.40
2018-09-23T06:57:16.141Z,14.50
2018-09-23T06:59:56.991Z,14.60
2018-09-23T07:02:37.448Z,14.70
2018-09-23T07:05:18.477Z,14.50
2018-09-23T07:07:59.472Z,14.70
2018-09-23T07:10:39.950Z,14.70
2018-09-23T07:13:21.145Z,14.60
2018-09-23T07:16:02.240Z,14.50
2018-09-23T07:18:42.646Z,14.50
2018-09-23T07:21:23.269Z,14.50
2018-09-23T07:24:04.833Z,14.50
2018-09-23T07:26:45.624Z,14.50
2018-09-23T07:29:26.161Z,14.50
2018-09-23T07:32:06.905Z,14.70
2018-09-23T07:34:47.661Z,14.80
2018-09-23T07:37:28.743Z,15.00
2018-09-23T07:40:10.537Z,15.00
2018-09-23T07:42:51.102Z,15.00
2018-09-23T07:45:31.783Z,15.00
2018-09-23T07:48:12.245Z,15.10
2018-09-23T07:50:53.104Z,15.10
2018-09-23T07:53:33.769Z,15.00
2018-09-23T07:56:14.427Z,15.00
2018-09-23T07:58:55.165Z,14.90
2018-09-23T08:01:35.768Z,14.90
2018-09-23T08:04:16.435Z,14.90
2018-09-23T08:06:57.743Z,15.00
2018-09-23T08:09:39.102Z,15.20
2018-09-23T08:12:20.111Z,15.20
2018-09-23T08:15:02.485Z,15.30
2018-09-23T08:17:43.051Z,15.30
2018-09-23T08:20:23.798Z,15.40
2018-09-23T08:23:05.466Z,15.40
2018-09-23T08:25:46.289Z,15.30
2018-09-23T08:28:27.405Z,15.10
2018-09-23T08:31:07.961Z,15.00
2018-09-23T08:33:49.019Z,15.10
2018-09-23T08:36:31.644Z,15.10
2018-09-23T08:39:12.941Z,15.20
2018-09-23T08:41:56.210Z,15.50
2018-09-23T08:44:37.901Z,15.70
2018-09-23T08:47:18.519Z,15.70
2018-09-23T08:49:59.367Z,15.60
2018-09-23T08:52:40.256Z,15.60
2018-09-23T08:55:22.097Z,15.60
2018-09-23T08:58:02.755Z,15.70
2018-09-23T09:00:43.794Z,15.60
2018-09-23T09:03:24.753Z,15.60
2018-09-23T09:06:05.925Z,15.60
2018-09-23T09:08:48.659Z,15.70
2018-09-23T09:11:29.799Z,15.70
2018-09-23T09:14:11.069Z,15.60
2018-09-23T09:16:52.182Z,15.60
2018-09-23T09:19:33.018Z,15.60
2018-09-23T09:22:14.050Z,15.60
2018-09-23T09:24:55.660Z,15.60
2018-09-23T09:27:36.597Z,15.50
2018-09-23T09:30:17.255Z,15.40
2018-09-23T09:32:58.376Z,15.30
2018-09-23T09:35:41.737Z,15.30
2018-09-23T09:38:26.884Z,15.40
2018-09-23T09:41:07.975Z,15.50
2018-09-23T09:43:48.926Z,15.60
2018-09-23T09:46:30.341Z,15.70
2018-09-23T09:49:11.136Z,15.60
2018-09-23T09:51:51.682Z,15.70
2018-09-23T09:54:32.886Z,15.80
2018-09-23T09:57:16.390Z,16.00
2018-09-23T09:59:57.298Z,16.10
2018-09-23T10:02:37.931Z,16.20
2018-09-23T10:05:19.340Z,16.30
2018-09-23T10:08:04.444Z,16.30
2018-09-23T10:10:47.995Z,16.30
2018-09-23T10:13:28.837Z,16.10
2018-09-23T10:16:09.617Z,16.20
2018-09-23T10:18:54.294Z,16.10
2018-09-23T10:21:34.944Z,16.00
2018-09-23T10:24:16.114Z,15.70
2018-09-23T10:26:57.157Z,15.70
2018-09-23T10:29:38.061Z,15.70
2018-09-23T10:32:18.737Z,15.60
2018-09-23T10:34:59.668Z,15.50
2018-09-23T10:37:40.572Z,15.70
2018-09-23T10:40:21.719Z,15.90
2018-09-23T10:43:02.161Z,16.10
2018-09-23T10:45:42.924Z,16.20
2018-09-23T10:48:28.067Z,16.30
2018-09-23T10:51:10.433Z,16.30
2018-09-23T10:53:52.578Z,16.20
2018-09-23T10:56:34.300Z,16.20
2018-09-23T10:59:14.993Z,16.30
2018-09-23T11:01:56.131Z,16.20
2018-09-23T11:04:36.832Z,16.00
2018-09-23T11:07:17.540Z,15.70
2018-09-23T11:09:58.707Z,15.40
2018-09-23T11:12:39.205Z,15.40
2018-09-23T11:15:20.357Z,15.50
2018-09-23T11:18:01.265Z,15.40
2018-09-23T11:20:42.026Z,15.40
2018-09-23T11:23:23.680Z,15.40
2018-09-23T11:26:05.396Z,15.40
2018-09-23T11:28:46.851Z,15.50
2018-09-23T11:31:28.245Z,15.50
2018-09-23T11:34:09.528Z,15.20
2018-09-23T11:36:50.640Z,15.10
2018-09-23T11:39:31.755Z,15.10
2018-09-23T11:42:12.482Z,15.10
2018-09-23T11:44:53.064Z,15.10
2018-09-23T11:47:34.128Z,14.90
2018-09-23T11:50:14.845Z,14.90
2018-09-23T11:52:55.468Z,13.80
2018-09-23T11:55:36.437Z,15.00
2018-09-23T11:58:17.038Z,15.00
2018-09-23T12:00:58.289Z,14.90
2018-09-23T12:03:40.683Z,15.00
2018-09-23T12:06:21.356Z,14.80
2018-09-23T12:09:02.543Z,14.70
2018-09-23T12:11:45.382Z,14.60
2018-09-23T12:14:26.087Z,14.50
2018-09-23T12:17:06.989Z,14.40
2018-09-23T12:19:47.592Z,14.50
2018-09-23T12:22:28.197Z,14.60
2018-09-23T12:25:09.226Z,14.80
2018-09-23T12:27:50.510Z,14.80
2018-09-23T12:30:31.749Z,15.00
2018-09-23T12:33:12.486Z,14.90
2018-09-23T12:35:54.703Z,14.80
2018-09-23T12:38:38.330Z,14.80
2018-09-23T12:41:21.276Z,14.80
2018-09-23T12:44:02.602Z,14.70
2018-09-23T12:46:43.667Z,14.60
2018-09-23T12:49:24.059Z,14.60
2018-09-23T12:52:06.039Z,14.50
2018-09-23T12:54:47.656Z,14.50
2018-09-23T12:57:28.751Z,14.50
2018-09-23T13:00:10.081Z,14.50
2018-09-23T13:02:51.642Z,14.70
2018-09-23T13:05:32.238Z,14.70
2018-09-23T13:08:13.631Z,14.60
2018-09-23T13:10:54.511Z,14.60
2018-09-23T13:13:36.237Z,14.60
2018-09-23T13:16:17.845Z,14.60
2018-09-23T13:18:59.251Z,14.70
2018-09-23T13:21:40.122Z,14.80
2018-09-23T13:24:21.118Z,14.70
2018-09-23T13:27:01.981Z,14.60
2018-09-23T13:29:42.905Z,14.60
2018-09-23T13:32:24.372Z,14.70
2018-09-23T13:35:05.408Z,14.70
2018-09-23T13:37:46.423Z,14.70
2018-09-23T13:40:28.109Z,14.60
2018-09-23T13:43:09.363Z,14.50
2018-09-23T13:45:50.097Z,14.50
2018-09-23T13:48:32.964Z,14.40
2018-09-23T13:51:14.110Z,14.30
2018-09-23T13:53:54.710Z,14.10
2018-09-23T13:56:35.548Z,14.00
2018-09-23T13:59:16.412Z,13.90
2018-09-23T14:01:58.014Z,13.90
2018-09-23T14:04:38.693Z,13.90
2018-09-23T14:07:19.212Z,13.80
2018-09-23T14:09:59.692Z,13.80
2018-09-23T14:12:40.393Z,13.80
2018-09-23T14:15:21.798Z,13.80
2018-09-23T14:18:02.721Z,13.70
2018-09-23T14:20:43.690Z,13.70
2018-09-23T14:23:24.788Z,13.60
2018-09-23T14:26:15.163Z,13.60
2018-09-23T14:29:01.885Z,13.70
2018-09-23T14:31:43.100Z,13.70
2018-09-23T14:34:26.821Z,13.70
2018-09-23T14:37:07.459Z,13.70
2018-09-23T14:39:48.152Z,13.60
2018-09-23T14:42:28.935Z,13.60
2018-09-23T14:45:10.992Z,13.50
2018-09-23T14:47:51.978Z,13.60
2018-09-23T14:50:32.695Z,13.60
2018-09-23T14:53:13.681Z,13.60
2018-09-23T14:55:56.059Z,13.60
2018-09-23T14:58:37.038Z,13.70
2018-09-23T15:01:20.324Z,13.60
2018-09-23T15:04:02.474Z,13.70
2018-09-23T15:06:43.885Z,13.70
2018-09-23T15:09:24.444Z,13.90
2018-09-23T15:12:05.624Z,13.80
2018-09-23T15:14:46.276Z,13.80
2018-09-23T15:17:28.090Z,13.80
2018-09-23T15:20:09.969Z,13.70
2018-09-23T15:22:50.601Z,13.80
2018-09-23T15:25:31.451Z,13.60
2018-09-23T15:28:13.132Z,13.70
2018-09-23T15:30:53.751Z,13.70
2018-09-23T15:33:34.842Z,13.60
2018-09-23T15:36:16.132Z,13.50
2018-09-23T15:38:57.334Z,13.40
2018-09-23T15:41:38.466Z,13.30
2018-09-23T15:44:19.468Z,13.40
2018-09-23T15:47:00.034Z,13.40
2018-09-23T15:49:40.931Z,13.40
2018-09-23T15:52:21.496Z,13.40
2018-09-23T15:55:03.670Z,13.50
2018-09-23T15:57:44.578Z,13.70
2018-09-23T16:00:25.031Z,13.70
2018-09-23T16:03:06.134Z,13.80
2018-09-23T16:05:47.416Z,13.90
2018-09-23T16:08:28.337Z,13.80
2018-09-23T16:11:10.621Z,13.60
2018-09-23T16:13:51.407Z,13.50
2018-09-23T16:16:32.280Z,13.30
2018-09-23T16:19:13.239Z,13.20
2018-09-23T16:21:54.487Z,13.20
2018-09-23T16:24:35.407Z,13.00
2018-09-23T16:27:16.355Z,13.00
2018-09-23T16:29:56.876Z,12.90
2018-09-23T16:32:37.536Z,12.90
2018-09-23T16:35:19.314Z,12.90
2018-09-23T16:38:02.712Z,12.90
2018-09-23T16:40:43.632Z,12.90
2018-09-23T16:43:26.487Z,12.90
2018-09-23T16:46:07.038Z,12.90
2018-09-23T16:48:59.159Z,12.90
2018-09-23T16:51:45.119Z,12.90
2018-09-23T16:54:25.706Z,13.00
2018-09-23T16:57:07.003Z,13.00
2018-09-23T16:59:48.304Z,12.90
2018-09-23T17:02:34.810Z,12.90
2018-09-23T17:05:16.972Z,12.90
2018-09-23T17:08:02.587Z,12.90
2018-09-23T17:10:47.684Z,13.00
2018-09-23T17:13:29.113Z,13.00
2018-09-23T17:16:10.553Z,13.20
2018-09-23T17:18:51.532Z,13.30
2018-09-23T17:21:32.226Z,13.30
2018-09-23T17:24:13.304Z,13.10
2018-09-23T17:26:53.956Z,13.00
2018-09-23T17:29:34.669Z,13.00
2018-09-23T17:32:15.654Z,13.00
2018-09-23T17:34:56.532Z,13.10
2018-09-23T17:37:37.386Z,13.10
2018-09-23T17:40:18.766Z,13.20
2018-09-23T17:42:59.345Z,13.10
2018-09-23T17:45:40.113Z,13.00
2018-09-23T17:48:20.962Z,13.00
2018-09-23T17:51:02.646Z,13.00
2018-09-23T17:53:43.520Z,13.00
2018-09-23T17:56:25.329Z,13.00
2018-09-23T17:59:06.642Z,13.10
2018-09-23T18:01:47.672Z,13.10
2018-09-23T18:04:29.044Z,13.10
2018-09-23T18:07:09.767Z,13.10
2018-09-23T18:09:51.873Z,13.10
2018-09-23T18:12:33.117Z,13.10
2018-09-23T18:15:14.455Z,13.10
2018-09-23T18:17:55.163Z,13.10
2018-09-23T18:20:37.015Z,13.10
2018-09-23T18:23:19.013Z,13.00
2018-09-23T18:25:59.722Z,12.90
2018-09-23T18:28:41.295Z,12.80
2018-09-23T18:31:23.196Z,12.70
2018-09-23T18:34:04.268Z,12.60
2018-09-23T18:36:47.283Z,12.40
2018-09-23T18:39:28.870Z,12.30
2018-09-23T18:42:11.193Z,12.30
2018-09-23T18:44:52.262Z,12.20
2018-09-23T18:47:34.152Z,12.20
2018-09-23T18:50:15.716Z,12.20
2018-09-23T18:53:02.379Z,12.10
2018-09-23T18:55:46.702Z,12.10
2018-09-23T18:58:27.942Z,12.00
2018-09-23T19:01:09.847Z,12.00
2018-09-23T19:03:50.604Z,11.90
2018-09-23T19:06:31.923Z,11.90
2018-09-23T19:09:13.327Z,11.80
2018-09-23T19:11:54.480Z,11.80
2018-09-23T19:14:35.664Z,11.80
2018-09-23T19:17:16.760Z,11.80
2018-09-23T19:21:52.164Z,11.80
2018-09-23T19:24:35.280Z,11.80
2018-09-23T19:27:16.999Z,11.80
2018-09-23T19:29:57.763Z,11.70
2018-09-23T19:32:39.128Z,11.70
2018-09-23T19:35:20.832Z,11.60
2018-09-23T19:38:02.295Z,11.60
2018-09-23T19:40:43.045Z,11.50
2018-09-23T19:43:24.066Z,11.30
2018-09-23T19:46:06.701Z,11.10
2018-09-23T19:48:54.227Z,11.00
2018-09-23T19:51:35.848Z,11.00
2018-09-23T19:54:18.317Z,10.80
2018-09-23T19:56:59.504Z,10.80
2018-09-23T19:59:40.760Z,10.50
2018-09-23T20:02:21.688Z,10.10
2018-09-23T20:05:03.444Z,9.90
2018-09-23T20:07:46.673Z,9.70
2018-09-23T20:10:27.825Z,9.60
2018-09-23T20:13:09.236Z,9.60
2018-09-23T20:15:50.482Z,9.60
2018-09-23T20:18:31.604Z,9.70
2018-09-23T20:21:13.156Z,9.70
2018-09-23T20:23:54.149Z,9.70
2018-09-23T20:26:35.106Z,9.70
2018-09-23T20:29:17.064Z,9.60
2018-09-23T20:31:58.078Z,9.60
2018-09-23T20:34:39.409Z,9.70
2018-09-23T20:37:21.465Z,9.70
2018-09-23T20:40:03.081Z,9.70
2018-09-23T20:42:44.314Z,9.60
2018-09-23T20:45:25.222Z,9.60
2018-09-23T20:48:07.509Z,9.70
2018-09-23T20:50:48.649Z,9.70
2018-09-23T20:53:30.237Z,9.80
2018-09-23T20:56:12.806Z,9.70
2018-09-23T20:58:56.069Z,9.70
2018-09-23T21:01:37.493Z,9.70
2018-09-23T21:04:19.147Z,9.70
2018-09-23T21:07:00.648Z,9.70
2018-09-23T21:09:43.711Z,9.60
2018-09-23T21:12:24.792Z,9.60
2018-09-23T21:15:08.040Z,9.50
2018-09-23T21:17:49.042Z,9.50
2018-09-23T21:20:30.293Z,9.40
2018-09-23T21:23:11.217Z,9.40
2018-09-23T21:25:52.898Z,9.40
2018-09-23T21:28:33.945Z,9.40
2018-09-23T21:31:15.394Z,9.20
2018-09-23T21:33:56.265Z,9.20
2018-09-23T21:36:37.986Z,9.10
2018-09-23T21:39:18.828Z,9.10
2018-09-23T21:41:59.825Z,9.10
2018-09-23T21:44:40.546Z,9.10
2018-09-23T21:47:21.229Z,9.10
2018-09-23T21:50:03.000Z,9.10
2018-09-23T21:52:43.970Z,9.20
2018-09-23T21:55:25.001Z,9.30
2018-09-23T21:58:06.221Z,9.30
2018-09-23T22:00:47.089Z,9.30
2018-09-23T22:03:29.383Z,9.30
2018-09-23T22:06:10.844Z,9.20
2018-09-23T22:08:51.710Z,9.30
2018-09-23T22:11:33.127Z,9.30
2018-09-23T22:14:15.021Z,9.30
2018-09-23T22:16:56.572Z,9.20
2018-09-23T22:19:38.674Z,9.20
2018-09-23T22:22:19.872Z,9.30
2018-09-23T22:25:00.828Z,9.30
2018-09-23T22:27:41.910Z,9.30
2018-09-23T22:30:24.354Z,9.30
2018-09-23T22:33:05.153Z,9.30
2018-09-23T22:35:46.054Z,9.30
2018-09-23T22:38:26.885Z,9.30
2018-09-23T22:41:08.309Z,9.30
2018-09-23T22:43:49.344Z,9.20
2018-09-23T22:46:30.157Z,9.20
2018-09-23T22:49:11.328Z,9.20
2018-09-23T22:51:52.822Z,9.30
2018-09-23T22:54:34.057Z,9.20
2018-09-23T22:57:15.345Z,9.30
2018-09-23T22:59:56.683Z,9.30
2018-09-23T23:02:37.764Z,9.20
2018-09-23T23:05:18.944Z,9.30
2018-09-23T23:07:59.968Z,9.30
2018-09-23T23:10:41.365Z,9.30
2018-09-23T23:13:22.345Z,9.30
2018-09-23T23:16:03.558Z,9.30
2018-09-23T23:18:44.468Z,9.20
2018-09-23T23:21:25.177Z,9.30
2018-09-23T23:24:05.909Z,9.20
2018-09-23T23:26:46.714Z,9.20
2018-09-23T23:29:28.272Z,9.20
2018-09-23T23:32:09.120Z,9.20
2018-09-23T23:34:50.298Z,9.10
2018-09-23T23:37:31.101Z,9.10
2018-09-23T23:40:12.184Z,9.00
2018-09-23T23:42:52.905Z,9.10
2018-09-23T23:45:34.064Z,9.10
2018-09-23T23:48:14.823Z,9.10
2018-09-23T23:50:55.871Z,9.10
2018-09-23T23:53:36.769Z,9.10
2018-09-23T23:56:17.534Z,9.10
2018-09-23T23:58:59.175Z,9.10
